Dallas Center, IA (50063)

7:30 AM CDT on April 25, 2015 (GMT -0500)
BALDNER FARM | | Change Station
CLOSE
Current Station
Personal Weather Station
Location: Dallas Center, IA
Elevation: 1100 ft
Nearby Weather Stations

Elev 1100 ft 41.71 °N, 93.93 °W | Updated 1 minute ago

Rain
Rain
43.6 °F
Feels Like 37 °F
N
14.0
Wind Variable Wind from ENE
Gusts 18.0 mph

Today
High -- | Low -- °F
--% Chance of Precip.
Yesterday
High -- | Low -- °F
Precip. -- in
6:21 AM 8:07 PM
Waxing Crescent, 45% visible
Pressure 29.59 in
Visibility 3.0 miles
Clouds Overcast 500 ft
Windchill 37 °F
Dew Point 43 °F
Humidity 96%
Rainfall 0.13 in
Snow Depth Not available.
UV 0 out of 12
Pollen 10.30 out of 12
Air Quality Not available.
Flu Activity Local Activity
METAR KPRO 251215Z AUTO 08013G22KT 3SM RA OVC005 07/06 A2959 RMK AO2 P0005 T00670064

More Conditions Fewer Conditions

Pressure 29.59 in
Visibility 3.0 miles
Clouds Overcast 500 ft
Windchill 37 °F
Dew Point 43 °F
Humidity 96%
Rainfall 0.13 in
Snow Depth Not available.
UV 0 out of 12
Pollen 10.30 out of 12
Air Quality Not available.
Flu Activity Local Activity
METAR KPRO 251215Z AUTO 08013G22KT 3SM RA OVC005 07/06 A2959 RMK AO2 P0005 T00670064

More Conditions Fewer Conditions

10-Day Weather Forecast

Almanac

Astronomy

Apr. 25, 2015 Rise Set
Actual Time
Civil Twilight
Nautical Twilight
Astronomical Twilight
Moon
Length of Visible Light
Length of Day
Tomorrow will be .
, % of the Moon is Illuminated

Today's Extremes

State Highs State Lows

Community

WunderPhotos

Upload Photos

1,816,647 photos uploaded!

WunderBlogs® & News

Nearby

Air Quality

  Air Quality AQ Index Pollutant
Not available.

Snow Depth

Station Depth Elevation

Earthquake Activity

City Distance Mag. Time & Date
Minimum magnitude displayed is 2.5.

Coastal Water Temperatures

Place Temperature

Stations

Nearby Weather Stations

Station Location Temp. Windchill Dew Point Humidity Wind Precip. Elev Updated Type